Irini — SYZA — position and weather

sailwx.info

Track history (hours):
 
Tides and Currents Weather Stations Pressure Air Temp Water Temp Dewpoint Dewpoint Depression Visibility Wind Speed Wind Dir Waves Ship Positions

Irini

Last reported at 2016-Jun-30 17:33 UTC. Time now 2016-Jun-30 17:48 UTC.
Position N 37°37' E 023°50'.

Length 137 m; draft 7.5 m.

Type: Ship (hazmat cat A). MMSI: 240052000.

Date/timePositionNaut miles runAvg speedWind from/ knotsBaromVisibWave heightAir tempDewpointWater temp
2016-Jun-30 17:33N 37°37' E 023°50'1110.7
2016-Jun-30 16:33N 37°44' E 023°40'1110.7
2016-Jun-30 15:33N 37°55' E 023°36'7 7.2
2016-Jun-30 14:33N 38°01' E 023°32'1 0.9
2016-Jun-30 13:32N 38°02' E 023°31'1 0.8
2016-Jun-30 12:33N 38°02' E 023°31'0 0.0
2016-Jun-30 11:33N 38°02' E 023°31'0 0.0
2016-Jun-30 10:33N 38°02' E 023°31'0 0.0
2016-Jun-30 09:33N 38°02' E 023°31'0 0.0
2016-Jun-30 08:33N 38°02' E 023°31'0 0.0
2016-Jun-30 07:33N 38°02' E 023°31'0 0.0
2016-Jun-30 06:30N 38°02' E 023°31'0 0.0
2016-Jun-30 05:33N 38°02' E 023°31'0 0.0
2016-Jun-30 04:30N 38°02' E 023°31'0 0.0
2016-Jun-30 03:33N 38°02' E 023°31'0 0.0
2016-Jun-30 02:33N 38°02' E 023°31'0 0.0
2016-Jun-30 01:33N 38°02' E 023°31'0 0.0
2016-Jun-30 00:33N 38°02' E 023°31'0 0.0
2016-Jun-29 23:33N 38°02' E 023°31'0 0.0
2016-Jun-29 22:33N 38°02' E 023°31'0 0.0
2016-Jun-29 21:33N 38°02' E 023°31'0 0.0
2016-Jun-29 20:33N 38°02' E 023°31'0 0.0
2016-Jun-29 19:30N 38°02' E 023°31'0 0.0
2016-Jun-29 18:33N 38°02' E 023°31'0 0.0
2016-Jun-29 17:33N 38°02' E 023°31'0 0.0
2016-Jun-29 16:33N 38°02' E 023°31'0 0.0
2016-Jun-29 15:33N 38°02' E 023°31'0 0.0
2016-Jun-29 14:27N 38°02' E 023°31'0 0.0
2016-Jun-29 13:33N 38°02' E 023°31'0 0.0
2016-Jun-29 12:27N 38°02' E 023°31'0 0.0
2016-Jun-29 11:30N 38°02' E 023°31'0 0.0
2016-Jun-29 10:33N 38°02' E 023°31'0 0.0
2016-Jun-29 09:33N 38°02' E 023°31'0 0.1
2016-Jun-29 08:34N 38°02' E 023°30'1 0.7
2016-Jun-29 07:31N 38°02' E 023°31'0 0.0
2016-Jun-29 06:31N 38°02' E 023°31'0 0.0
2016-Jun-29 05:31N 38°02' E 023°31'0 0.0
2016-Jun-29 04:31N 38°02' E 023°31'0 0.0
2016-Jun-29 03:31N 38°02' E 023°31'0 0.0
2016-Jun-29 02:31N 38°02' E 023°31'0 0.0
2016-Jun-29 01:31N 38°02' E 023°31'0 0.0
2016-Jun-29 00:31N 38°02' E 023°31'0 0.0
2016-Jun-28 23:31N 38°02' E 023°31'0 0.0
2016-Jun-28 22:31N 38°02' E 023°31'0 0.1
2016-Jun-28 21:31N 38°02' E 023°31'0 0.0
2016-Jun-28 20:31N 38°02' E 023°31'0 0.0
2016-Jun-28 19:31N 38°02' E 023°31'0 0.0
2016-Jun-28 18:31N 38°02' E 023°31'0 0.1
2016-Jun-28 17:31N 38°02' E 023°31'0 0.1
2016-Jun-28 16:31N 38°02' E 023°31'0 0.2
2016-Jun-28 15:31N 38°02' E 023°31'0 0.0
2016-Jun-28 14:31N 38°02' E 023°31'0 0.0
2016-Jun-28 13:31N 38°02' E 023°31'0 0.0
2016-Jun-28 12:31N 38°02' E 023°31'0 0.1
2016-Jun-28 11:31N 38°02' E 023°31'0 0.0
2016-Jun-28 10:31N 38°02' E 023°31'0 0.0
2016-Jun-28 09:31N 38°02' E 023°31'0 0.1
2016-Jun-28 08:31N 38°02' E 023°31'0 0.1
2016-Jun-28 07:31N 38°02' E 023°31'0 0.0
2016-Jun-28 06:31N 38°02' E 023°31'3 1.7
2016-Jun-28 04:32N 38°01' E 023°36'0 0.0
2016-Jun-28 03:32N 38°01' E 023°36'0 0.0
2016-Jun-28 02:32N 38°01' E 023°36'0 0.0
2016-Jun-28 01:32N 38°01' E 023°36'0 0.0
2016-Jun-28 00:32N 38°01' E 023°36'0 0.0
2016-Jun-27 23:26N 38°01' E 023°36'0 0.0
2016-Jun-27 22:32N 38°01' E 023°36'0 0.0
2016-Jun-27 21:32N 38°01' E 023°36'0 0.0
2016-Jun-27 20:32N 38°01' E 023°36'0 0.0
2016-Jun-27 19:32N 38°01' E 023°36'0 0.0
2016-Jun-27 18:32N 38°01' E 023°36'0 0.0
2016-Jun-27 17:32N 38°01' E 023°36'0 0.0
2016-Jun-27 16:32N 38°01' E 023°36'0 0.0
2016-Jun-27 15:26N 38°01' E 023°36'0 0.0
2016-Jun-27 14:32N 38°01' E 023°36'0 0.0
2016-Jun-27 13:32N 38°01' E 023°36'0 0.0
2016-Jun-27 12:32N 38°01' E 023°36'0 0.0
2016-Jun-27 11:32N 38°01' E 023°36'0 0.0
2016-Jun-27 10:32N 38°01' E 023°36'0 0.0
2016-Jun-27 09:32N 38°01' E 023°36'0 0.0
2016-Jun-27 08:32N 38°01' E 023°36'3 2.8
2016-Jun-27 07:33N 37°60' E 023°33'5 5.4
2016-Jun-27 06:33N 37°55' E 023°36'3 3.0
2016-Jun-27 05:34N 37°52' E 023°38'10 9.6
2016-Jun-27 04:33N 37°44' E 023°43'1010.0
2016-Jun-27 03:33N 37°38' E 023°54'1111.3
2016-Jun-27 02:33N 37°37' E 024°08'1311.9
2016-Jun-27 01:28N 37°46' E 024°20'3310.1
2016-Jun-26 22:09N 38°18' E 024°32'1011.7
2016-Jun-26 21:19N 38°27' E 024°27'13511.4
2016-Jun-26 09:25N 40°19' E 022°50'1110.6
2016-Jun-26 08:24N 40°29' E 022°46'910.9
2016-Jun-26 07:33N 40°36' E 022°54'2 1.9
2016-Jun-26 06:24N 40°38' E 022°53'0 0.0
2016-Jun-26 05:27N 40°38' E 022°53'0 0.0
2016-Jun-26 04:27N 40°38' E 022°53'0 0.0
2016-Jun-26 03:30N 40°38' E 022°53'0 0.0
2016-Jun-26 02:30N 40°38' E 022°53'0 0.0
2016-Jun-26 01:30N 40°38' E 022°53'0 0.0
2016-Jun-26 00:33N 40°38' E 022°53'0 0.0
2016-Jun-25 23:30N 40°38' E 022°53'0 0.0
2016-Jun-25 22:33N 40°38' E 022°53'0 0.0
2016-Jun-25 21:33N 40°38' E 022°53'0 0.0
2016-Jun-25 20:33N 40°38' E 022°53'0 0.0
2016-Jun-25 19:33N 40°38' E 022°53'0 0.0
2016-Jun-25 18:33N 40°38' E 022°53'0 0.0
2016-Jun-25 17:24N 40°38' E 022°53'0 0.0
2016-Jun-25 16:27N 40°38' E 022°53'0 0.0
2016-Jun-25 15:27N 40°38' E 022°53'0 0.0
2016-Jun-25 14:27N 40°38' E 022°53'0 0.0
2016-Jun-25 13:30N 40°38' E 022°53'0 0.0
2016-Jun-25 12:30N 40°38' E 022°53'0 0.0
2016-Jun-25 11:30N 40°38' E 022°53'1 0.7
2016-Jun-25 10:34N 40°38' E 022°54'2 1.7
2016-Jun-25 09:28N 40°36' E 022°56'0 0.0
2016-Jun-25 08:28N 40°36' E 022°56'0 0.2
2016-Jun-25 07:31N 40°36' E 022°56'0 0.1
2016-Jun-25 06:31N 40°36' E 022°56'0 0.0
2016-Jun-25 05:31N 40°36' E 022°56'0 0.0
2016-Jun-25 04:31N 40°36' E 022°56'0 0.0
2016-Jun-25 03:31N 40°36' E 022°56'0 0.0
2016-Jun-25 02:31N 40°36' E 022°56'0 0.0
2016-Jun-25 01:31N 40°36' E 022°56'0 0.0
2016-Jun-25 00:22N 40°36' E 022°56'0 0.0
2016-Jun-24 23:25N 40°36' E 022°56'0 0.0
2016-Jun-24 22:25N 40°36' E 022°56'0 0.1
2016-Jun-24 21:25N 40°36' E 022°56'0 0.0
2016-Jun-24 20:28N 40°36' E 022°56'0 0.0
2016-Jun-24 19:28N 40°36' E 022°56'0 0.1
2016-Jun-24 18:28N 40°36' E 022°56'0 0.0
2016-Jun-24 17:31N 40°36' E 022°56'0 0.0
2016-Jun-24 16:31N 40°36' E 022°56'0 0.1
2016-Jun-24 15:31N 40°36' E 022°56'0 0.0
2016-Jun-24 14:31N 40°36' E 022°56'0 0.1
2016-Jun-24 13:31N 40°36' E 022°56'0 0.0
2016-Jun-24 12:31N 40°36' E 022°56'0 0.0
2016-Jun-24 11:22N 40°36' E 022°56'0 0.1
2016-Jun-24 10:22N 40°36' E 022°56'0 0.1
2016-Jun-24 09:25N 40°36' E 022°56'0 0.3
2016-Jun-24 08:33N 40°36' E 022°56'2 2.3
2016-Jun-24 07:30N 40°38' E 022°53'0 0.0
2016-Jun-24 04:33N 40°38' E 022°53'0 0.0
2016-Jun-24 03:33N 40°38' E 022°53'0 0.0
2016-Jun-24 02:21N 40°38' E 022°53'0 0.0
2016-Jun-24 01:33N 40°38' E 022°53'0 0.0
2016-Jun-24 00:33N 40°38' E 022°53'0 0.0
2016-Jun-23 23:33N 40°38' E 022°53'0 0.0
2016-Jun-23 22:24N 40°38' E 022°53'0 0.0
2016-Jun-23 21:21N 40°38' E 022°53'0 0.0
2016-Jun-23 20:27N 40°38' E 022°53'0 0.0
2016-Jun-23 19:27N 40°38' E 022°53'0 0.0
2016-Jun-23 18:27N 40°38' E 022°53'0 0.0
2016-Jun-23 17:30N 40°38' E 022°53'0 0.0
2016-Jun-23 16:30N 40°38' E 022°53'0 0.0
2016-Jun-23 15:30N 40°38' E 022°53'0 0.0
2016-Jun-23 14:33N 40°38' E 022°53'0 0.0
2016-Jun-23 13:33N 40°38' E 022°53'0 0.0
2016-Jun-23 12:33N 40°38' E 022°53'0 0.0
2016-Jun-23 11:33N 40°38' E 022°53'0 0.0
2016-Jun-23 10:33N 40°38' E 022°53'0 0.0
2016-Jun-23 09:33N 40°38' E 022°53'0 0.0
2016-Jun-23 08:33N 40°38' E 022°53'0 0.0
2016-Jun-23 07:24N 40°38' E 022°53'0 0.0
2016-Jun-23 05:27N 40°38' E 022°53'0 0.3
2016-Jun-23 04:34N 40°38' E 022°54'2 2.2
2016-Jun-23 03:28N 40°36' E 022°56'0 0.0
2016-Jun-23 02:28N 40°36' E 022°56'0 0.0
2016-Jun-23 01:31N 40°36' E 022°56'0 0.0
2016-Jun-23 00:31N 40°36' E 022°56'0 0.1
2016-Jun-22 23:31N 40°37' E 022°56'0 0.0
2016-Jun-22 22:31N 40°37' E 022°56'0 0.0
2016-Jun-22 21:31N 40°37' E 022°56'0 0.1
2016-Jun-22 20:31N 40°37' E 022°56'0 0.0
2016-Jun-22 19:22N 40°36' E 022°56'3 3.7
2016-Jun-22 18:33N 40°34' E 022°53'10 9.9
2016-Jun-22 17:33N 40°25' E 022°48'17110.1
2016-Jun-22 00:33N 37°55' E 024°34'10 9.7
2016-Jun-21 23:33N 37°48' E 024°25'1110.2
2016-Jun-21 22:26N 37°41' E 024°14'910.2
2016-Jun-21 21:32N 37°36' E 024°04'1111.0
2016-Jun-21 20:33N 37°37' E 023°51'1110.9
2016-Jun-21 19:33N 37°44' E 023°40'1110.6
2016-Jun-21 18:33N 37°54' E 023°35'1 0.8
2016-Jun-21 17:33N 37°54' E 023°34'0 0.0
2016-Jun-21 16:33N 37°54' E 023°34'0 0.0
2016-Jun-21 15:33N 37°54' E 023°34'0 0.0
2016-Jun-21 14:33N 37°54' E 023°34'0 0.0
2016-Jun-21 13:33N 37°54' E 023°34'0 0.0
2016-Jun-21 12:33N 37°54' E 023°34'0 0.0
2016-Jun-21 11:33N 37°54' E 023°34'0 0.0
2016-Jun-21 10:33N 37°54' E 023°34'0 0.0
2016-Jun-21 09:33N 37°54' E 023°34'2 1.7
2016-Jun-21 08:04N 37°55' E 023°37'4 7.7
2016-Jun-21 07:33N 37°58' E 023°33'5 2.3
2016-Jun-21 05:33N 38°02' E 023°31'0 0.0
2016-Jun-21 04:33N 38°02' E 023°31'0 0.0
2016-Jun-21 03:33N 38°02' E 023°31'0 0.0
2016-Jun-21 02:33N 38°02' E 023°31'0 0.0
2016-Jun-21 01:33N 38°02' E 023°31'0 0.0
2016-Jun-21 00:33N 38°02' E 023°31'0 0.0
2016-Jun-20 23:33N 38°02' E 023°31'0 0.0
2016-Jun-20 22:33N 38°02' E 023°31'0 0.0
2016-Jun-20 21:33N 38°02' E 023°31'0 0.0
2016-Jun-20 20:33N 38°02' E 023°31'0 0.0
2016-Jun-20 19:33N 38°02' E 023°31'0 0.0
2016-Jun-20 18:33N 38°02' E 023°31'  
Track history (hours):
 
Tides and Currents Weather Stations Pressure Air Temp Water Temp Dewpoint Dewpoint Depression Visibility Wind Speed Wind Dir Waves Ship Positions

Irini

Last reported at 2016-Jun-30 17:33 UTC. Time now 2016-Jun-30 17:48 UTC.
Position N 37°37' E 023°50'.

Length 137 m; draft 7.5 m.

Type: Ship (hazmat cat A). MMSI: 240052000.

Date/timePositionNaut miles runAvg speedWind from/ knotsBaromVisibWave heightAir tempDewpointWater temp
2016-Jun-30 17:33N 37°37' E 023°50'1110.7
2016-Jun-30 16:33N 37°44' E 023°40'1110.7
2016-Jun-30 15:33N 37°55' E 023°36'7 7.2
2016-Jun-30 14:33N 38°01' E 023°32'1 0.9
2016-Jun-30 13:32N 38°02' E 023°31'1 0.8
2016-Jun-30 12:33N 38°02' E 023°31'0 0.0
2016-Jun-30 11:33N 38°02' E 023°31'0 0.0
2016-Jun-30 10:33N 38°02' E 023°31'0 0.0
2016-Jun-30 09:33N 38°02' E 023°31'0 0.0
2016-Jun-30 08:33N 38°02' E 023°31'0 0.0
2016-Jun-30 07:33N 38°02' E 023°31'0 0.0
2016-Jun-30 06:30N 38°02' E 023°31'0 0.0
2016-Jun-30 05:33N 38°02' E 023°31'0 0.0
2016-Jun-30 04:30N 38°02' E 023°31'0 0.0
2016-Jun-30 03:33N 38°02' E 023°31'0 0.0
2016-Jun-30 02:33N 38°02' E 023°31'0 0.0
2016-Jun-30 01:33N 38°02' E 023°31'0 0.0
2016-Jun-30 00:33N 38°02' E 023°31'0 0.0
2016-Jun-29 23:33N 38°02' E 023°31'0 0.0
2016-Jun-29 22:33N 38°02' E 023°31'0 0.0
2016-Jun-29 21:33N 38°02' E 023°31'0 0.0
2016-Jun-29 20:33N 38°02' E 023°31'0 0.0
2016-Jun-29 19:30N 38°02' E 023°31'0 0.0
2016-Jun-29 18:33N 38°02' E 023°31'0 0.0
2016-Jun-29 17:33N 38°02' E 023°31'0 0.0
2016-Jun-29 16:33N 38°02' E 023°31'0 0.0
2016-Jun-29 15:33N 38°02' E 023°31'0 0.0
2016-Jun-29 14:27N 38°02' E 023°31'0 0.0
2016-Jun-29 13:33N 38°02' E 023°31'0 0.0
2016-Jun-29 12:27N 38°02' E 023°31'0 0.0
2016-Jun-29 11:30N 38°02' E 023°31'0 0.0
2016-Jun-29 10:33N 38°02' E 023°31'0 0.0
2016-Jun-29 09:33N 38°02' E 023°31'0 0.1
2016-Jun-29 08:34N 38°02' E 023°30'1 0.7
2016-Jun-29 07:31N 38°02' E 023°31'0 0.0
2016-Jun-29 06:31N 38°02' E 023°31'0 0.0
2016-Jun-29 05:31N 38°02' E 023°31'0 0.0
2016-Jun-29 04:31N 38°02' E 023°31'0 0.0
2016-Jun-29 03:31N 38°02' E 023°31'0 0.0
2016-Jun-29 02:31N 38°02' E 023°31'0 0.0
2016-Jun-29 01:31N 38°02' E 023°31'0 0.0
2016-Jun-29 00:31N 38°02' E 023°31'0 0.0
2016-Jun-28 23:31N 38°02' E 023°31'0 0.0
2016-Jun-28 22:31N 38°02' E 023°31'0 0.1
2016-Jun-28 21:31N 38°02' E 023°31'0 0.0
2016-Jun-28 20:31N 38°02' E 023°31'0 0.0
2016-Jun-28 19:31N 38°02' E 023°31'0 0.0
2016-Jun-28 18:31N 38°02' E 023°31'0 0.1
2016-Jun-28 17:31N 38°02' E 023°31'0 0.1
2016-Jun-28 16:31N 38°02' E 023°31'0 0.2
2016-Jun-28 15:31N 38°02' E 023°31'0 0.0
2016-Jun-28 14:31N 38°02' E 023°31'0 0.0
2016-Jun-28 13:31N 38°02' E 023°31'0 0.0
2016-Jun-28 12:31N 38°02' E 023°31'0 0.1
2016-Jun-28 11:31N 38°02' E 023°31'0 0.0
2016-Jun-28 10:31N 38°02' E 023°31'0 0.0
2016-Jun-28 09:31N 38°02' E 023°31'0 0.1
2016-Jun-28 08:31N 38°02' E 023°31'0 0.1
2016-Jun-28 07:31N 38°02' E 023°31'0 0.0
2016-Jun-28 06:31N 38°02' E 023°31'3 1.7
2016-Jun-28 04:32N 38°01' E 023°36'0 0.0
2016-Jun-28 03:32N 38°01' E 023°36'0 0.0
2016-Jun-28 02:32N 38°01' E 023°36'0 0.0
2016-Jun-28 01:32N 38°01' E 023°36'0 0.0
2016-Jun-28 00:32N 38°01' E 023°36'0 0.0
2016-Jun-27 23:26N 38°01' E 023°36'0 0.0
2016-Jun-27 22:32N 38°01' E 023°36'0 0.0
2016-Jun-27 21:32N 38°01' E 023°36'0 0.0
2016-Jun-27 20:32N 38°01' E 023°36'0 0.0
2016-Jun-27 19:32N 38°01' E 023°36'0 0.0
2016-Jun-27 18:32N 38°01' E 023°36'0 0.0
2016-Jun-27 17:32N 38°01' E 023°36'0 0.0
2016-Jun-27 16:32N 38°01' E 023°36'0 0.0
2016-Jun-27 15:26N 38°01' E 023°36'0 0.0
2016-Jun-27 14:32N 38°01' E 023°36'0 0.0
2016-Jun-27 13:32N 38°01' E 023°36'0 0.0
2016-Jun-27 12:32N 38°01' E 023°36'0 0.0
2016-Jun-27 11:32N 38°01' E 023°36'0 0.0
2016-Jun-27 10:32N 38°01' E 023°36'0 0.0
2016-Jun-27 09:32N 38°01' E 023°36'0 0.0
2016-Jun-27 08:32N 38°01' E 023°36'3 2.8
2016-Jun-27 07:33N 37°60' E 023°33'5 5.4
2016-Jun-27 06:33N 37°55' E 023°36'3 3.0
2016-Jun-27 05:34N 37°52' E 023°38'10 9.6
2016-Jun-27 04:33N 37°44' E 023°43'1010.0
2016-Jun-27 03:33N 37°38' E 023°54'1111.3
2016-Jun-27 02:33N 37°37' E 024°08'1311.9
2016-Jun-27 01:28N 37°46' E 024°20'3310.1
2016-Jun-26 22:09N 38°18' E 024°32'1011.7
2016-Jun-26 21:19N 38°27' E 024°27'13511.4
2016-Jun-26 09:25N 40°19' E 022°50'1110.6
2016-Jun-26 08:24N 40°29' E 022°46'910.9
2016-Jun-26 07:33N 40°36' E 022°54'2 1.9
2016-Jun-26 06:24N 40°38' E 022°53'0 0.0
2016-Jun-26 05:27N 40°38' E 022°53'0 0.0
2016-Jun-26 04:27N 40°38' E 022°53'0 0.0
2016-Jun-26 03:30N 40°38' E 022°53'0 0.0
2016-Jun-26 02:30N 40°38' E 022°53'0 0.0
2016-Jun-26 01:30N 40°38' E 022°53'0 0.0
2016-Jun-26 00:33N 40°38' E 022°53'0 0.0
2016-Jun-25 23:30N 40°38' E 022°53'0 0.0
2016-Jun-25 22:33N 40°38' E 022°53'0 0.0
2016-Jun-25 21:33N 40°38' E 022°53'0 0.0
2016-Jun-25 20:33N 40°38' E 022°53'0 0.0
2016-Jun-25 19:33N 40°38' E 022°53'0 0.0
2016-Jun-25 18:33N 40°38' E 022°53'0 0.0
2016-Jun-25 17:24N 40°38' E 022°53'0 0.0
2016-Jun-25 16:27N 40°38' E 022°53'0 0.0
2016-Jun-25 15:27N 40°38' E 022°53'0 0.0
2016-Jun-25 14:27N 40°38' E 022°53'0 0.0
2016-Jun-25 13:30N 40°38' E 022°53'0 0.0
2016-Jun-25 12:30N 40°38' E 022°53'0 0.0
2016-Jun-25 11:30N 40°38' E 022°53'1 0.7
2016-Jun-25 10:34N 40°38' E 022°54'2 1.7
2016-Jun-25 09:28N 40°36' E 022°56'0 0.0
2016-Jun-25 08:28N 40°36' E 022°56'0 0.2
2016-Jun-25 07:31N 40°36' E 022°56'0 0.1
2016-Jun-25 06:31N 40°36' E 022°56'0 0.0
2016-Jun-25 05:31N 40°36' E 022°56'0 0.0
2016-Jun-25 04:31N 40°36' E 022°56'0 0.0
2016-Jun-25 03:31N 40°36' E 022°56'0 0.0
2016-Jun-25 02:31N 40°36' E 022°56'0 0.0
2016-Jun-25 01:31N 40°36' E 022°56'0 0.0
2016-Jun-25 00:22N 40°36' E 022°56'0 0.0
2016-Jun-24 23:25N 40°36' E 022°56'0 0.0
2016-Jun-24 22:25N 40°36' E 022°56'0 0.1
2016-Jun-24 21:25N 40°36' E 022°56'0 0.0
2016-Jun-24 20:28N 40°36' E 022°56'0 0.0
2016-Jun-24 19:28N 40°36' E 022°56'0 0.1
2016-Jun-24 18:28N 40°36' E 022°56'0 0.0
2016-Jun-24 17:31N 40°36' E 022°56'0 0.0
2016-Jun-24 16:31N 40°36' E 022°56'0 0.1
2016-Jun-24 15:31N 40°36' E 022°56'0 0.0
2016-Jun-24 14:31N 40°36' E 022°56'0 0.1
2016-Jun-24 13:31N 40°36' E 022°56'0 0.0
2016-Jun-24 12:31N 40°36' E 022°56'0 0.0
2016-Jun-24 11:22N 40°36' E 022°56'0 0.1
2016-Jun-24 10:22N 40°36' E 022°56'0 0.1
2016-Jun-24 09:25N 40°36' E 022°56'0 0.3
2016-Jun-24 08:33N 40°36' E 022°56'2 2.3
2016-Jun-24 07:30N 40°38' E 022°53'0 0.0
2016-Jun-24 04:33N 40°38' E 022°53'0 0.0
2016-Jun-24 03:33N 40°38' E 022°53'0 0.0
2016-Jun-24 02:21N 40°38' E 022°53'0 0.0
2016-Jun-24 01:33N 40°38' E 022°53'0 0.0
2016-Jun-24 00:33N 40°38' E 022°53'0 0.0
2016-Jun-23 23:33N 40°38' E 022°53'0 0.0
2016-Jun-23 22:24N 40°38' E 022°53'0 0.0
2016-Jun-23 21:21N 40°38' E 022°53'0 0.0
2016-Jun-23 20:27N 40°38' E 022°53'0 0.0
2016-Jun-23 19:27N 40°38' E 022°53'0 0.0
2016-Jun-23 18:27N 40°38' E 022°53'0 0.0
2016-Jun-23 17:30N 40°38' E 022°53'0 0.0
2016-Jun-23 16:30N 40°38' E 022°53'0 0.0
2016-Jun-23 15:30N 40°38' E 022°53'0 0.0
2016-Jun-23 14:33N 40°38' E 022°53'0 0.0
2016-Jun-23 13:33N 40°38' E 022°53'0 0.0
2016-Jun-23 12:33N 40°38' E 022°53'0 0.0
2016-Jun-23 11:33N 40°38' E 022°53'0 0.0
2016-Jun-23 10:33N 40°38' E 022°53'0 0.0
2016-Jun-23 09:33N 40°38' E 022°53'0 0.0
2016-Jun-23 08:33N 40°38' E 022°53'0 0.0
2016-Jun-23 07:24N 40°38' E 022°53'0 0.0
2016-Jun-23 05:27N 40°38' E 022°53'0 0.3
2016-Jun-23 04:34N 40°38' E 022°54'2 2.2
2016-Jun-23 03:28N 40°36' E 022°56'0 0.0
2016-Jun-23 02:28N 40°36' E 022°56'0 0.0
2016-Jun-23 01:31N 40°36' E 022°56'0 0.0
2016-Jun-23 00:31N 40°36' E 022°56'0 0.1
2016-Jun-22 23:31N 40°37' E 022°56'0 0.0
2016-Jun-22 22:31N 40°37' E 022°56'0 0.0
2016-Jun-22 21:31N 40°37' E 022°56'0 0.1
2016-Jun-22 20:31N 40°37' E 022°56'0 0.0
2016-Jun-22 19:22N 40°36' E 022°56'3 3.7
2016-Jun-22 18:33N 40°34' E 022°53'10 9.9
2016-Jun-22 17:33N 40°25' E 022°48'17110.1
2016-Jun-22 00:33N 37°55' E 024°34'10 9.7
2016-Jun-21 23:33N 37°48' E 024°25'1110.2
2016-Jun-21 22:26N 37°41' E 024°14'910.2
2016-Jun-21 21:32N 37°36' E 024°04'1111.0
2016-Jun-21 20:33N 37°37' E 023°51'1110.9
2016-Jun-21 19:33N 37°44' E 023°40'1110.6
2016-Jun-21 18:33N 37°54' E 023°35'1 0.8
2016-Jun-21 17:33N 37°54' E 023°34'0 0.0
2016-Jun-21 16:33N 37°54' E 023°34'0 0.0
2016-Jun-21 15:33N 37°54' E 023°34'0 0.0
2016-Jun-21 14:33N 37°54' E 023°34'0 0.0
2016-Jun-21 13:33N 37°54' E 023°34'0 0.0
2016-Jun-21 12:33N 37°54' E 023°34'0 0.0
2016-Jun-21 11:33N 37°54' E 023°34'0 0.0
2016-Jun-21 10:33N 37°54' E 023°34'0 0.0
2016-Jun-21 09:33N 37°54' E 023°34'2 1.7
2016-Jun-21 08:04N 37°55' E 023°37'4 7.7
2016-Jun-21 07:33N 37°58' E 023°33'5 2.3
2016-Jun-21 05:33N 38°02' E 023°31'0 0.0
2016-Jun-21 04:33N 38°02' E 023°31'0 0.0
2016-Jun-21 03:33N 38°02' E 023°31'0 0.0
2016-Jun-21 02:33N 38°02' E 023°31'0 0.0
2016-Jun-21 01:33N 38°02' E 023°31'0 0.0
2016-Jun-21 00:33N 38°02' E 023°31'0 0.0
2016-Jun-20 23:33N 38°02' E 023°31'0 0.0
2016-Jun-20 22:33N 38°02' E 023°31'0 0.0
2016-Jun-20 21:33N 38°02' E 023°31'0 0.0
2016-Jun-20 20:33N 38°02' E 023°31'0 0.0
2016-Jun-20 19:33N 38°02' E 023°31'0 0.0
2016-Jun-20 18:33N 38°02' E 023°31'  

Dump ship's entire track history